sensor_id;sensor_type;location;lat;lon;timestamp;P1;durP1;ratioP1;P2;durP2;ratioP2
36241;SDS011;22283;42.748;12.732;2024-03-08T00:03:02;8.85;;;4.80;;
36241;SDS011;22283;42.748;12.732;2024-03-08T00:08:04;7.40;;;4.10;;
36241;SDS011;22283;42.748;12.732;2024-03-08T00:13:05;10.25;;;5.15;;
36241;SDS011;22283;42.748;12.732;2024-03-08T00:18:06;10.60;;;5.50;;
36241;SDS011;22283;42.748;12.732;2024-03-08T00:23:07;9.20;;;5.50;;
36241;SDS011;22283;42.748;12.732;2024-03-08T00:28:07;7.00;;;4.57;;
36241;SDS011;22283;42.748;12.732;2024-03-08T00:33:08;8.83;;;4.87;;
36241;SDS011;22283;42.748;12.732;2024-03-08T00:38:09;9.83;;;4.87;;
36241;SDS011;22283;42.748;12.732;2024-03-08T00:43:09;6.27;;;3.63;;
36241;SDS011;22283;42.748;12.732;2024-03-08T00:48:09;8.17;;;4.87;;
36241;SDS011;22283;42.748;12.732;2024-03-08T00:53:11;8.85;;;5.03;;
36241;SDS011;22283;42.748;12.732;2024-03-08T01:03:13;11.40;;;6.22;;
36241;SDS011;22283;42.748;12.732;2024-03-08T01:08:14;10.73;;;5.67;;
36241;SDS011;22283;42.748;12.732;2024-03-08T01:13:14;11.07;;;5.93;;
36241;SDS011;22283;42.748;12.732;2024-03-08T01:18:15;11.57;;;5.73;;
36241;SDS011;22283;42.748;12.732;2024-03-08T01:23:15;13.20;;;5.80;;
36241;SDS011;22283;42.748;12.732;2024-03-08T01:28:16;10.47;;;5.23;;
36241;SDS011;22283;42.748;12.732;2024-03-08T01:33:16;9.07;;;4.07;;
36241;SDS011;22283;42.748;12.732;2024-03-08T01:38:17;6.63;;;4.20;;
36241;SDS011;22283;42.748;12.732;2024-03-08T01:48:18;6.17;;;3.83;;
36241;SDS011;22283;42.748;12.732;2024-03-08T01:53:22;6.88;;;4.68;;
36241;SDS011;22283;42.748;12.732;2024-03-08T01:58:23;12.88;;;4.75;;
36241;SDS011;22283;42.748;12.732;2024-03-08T02:03:26;6.53;;;4.53;;
36241;SDS011;22283;42.748;12.732;2024-03-08T02:08:28;11.30;;;4.40;;
36241;SDS011;22283;42.748;12.732;2024-03-08T02:13:29;8.02;;;4.63;;
36241;SDS011;22283;42.748;12.732;2024-03-08T02:18:29;9.73;;;4.73;;
36241;SDS011;22283;42.748;12.732;2024-03-08T02:23:30;8.83;;;4.90;;
36241;SDS011;22283;42.748;12.732;2024-03-08T02:28:32;9.25;;;5.47;;
36241;SDS011;22283;42.748;12.732;2024-03-08T02:38:34;10.30;;;4.25;;
36241;SDS011;22283;42.748;12.732;2024-03-08T02:43:35;6.23;;;4.23;;
36241;SDS011;22283;42.748;12.732;2024-03-08T02:48:35;6.90;;;4.40;;
36241;SDS011;22283;42.748;12.732;2024-03-08T02:53:36;10.27;;;5.03;;
36241;SDS011;22283;42.748;12.732;2024-03-08T02:58:36;8.37;;;4.73;;
36241;SDS011;22283;42.748;12.732;2024-03-08T03:03:37;10.40;;;5.27;;
36241;SDS011;22283;42.748;12.732;2024-03-08T03:08:38;7.17;;;4.20;;
36241;SDS011;22283;42.748;12.732;2024-03-08T03:13:39;7.47;;;3.90;;
36241;SDS011;22283;42.748;12.732;2024-03-08T03:18:40;8.27;;;3.72;;
36241;SDS011;22283;42.748;12.732;2024-03-08T03:23:40;9.57;;;3.70;;
36241;SDS011;22283;42.748;12.732;2024-03-08T03:28:42;6.47;;;3.58;;
36241;SDS011;22283;42.748;12.732;2024-03-08T03:33:43;6.65;;;4.40;;
36241;SDS011;22283;42.748;12.732;2024-03-08T03:38:44;5.03;;;3.17;;
36241;SDS011;22283;42.748;12.732;2024-03-08T03:43:44;5.60;;;3.37;;
36241;SDS011;22283;42.748;12.732;2024-03-08T03:48:45;6.87;;;3.70;;
36241;SDS011;22283;42.748;12.732;2024-03-08T03:53:45;6.93;;;4.00;;
36241;SDS011;22283;42.748;12.732;2024-03-08T03:58:46;6.37;;;4.03;;
36241;SDS011;22283;42.748;12.732;2024-03-08T04:03:46;6.37;;;3.83;;
36241;SDS011;22283;42.748;12.732;2024-03-08T04:08:47;8.23;;;4.30;;
36241;SDS011;22283;42.748;12.732;2024-03-08T04:13:48;6.43;;;4.07;;
36241;SDS011;22283;42.748;12.732;2024-03-08T04:18:48;10.57;;;4.07;;
36241;SDS011;22283;42.748;12.732;2024-03-08T04:23:49;10.27;;;3.90;;
36241;SDS011;22283;42.748;12.732;2024-03-08T04:28:50;6.87;;;3.70;;
36241;SDS011;22283;42.748;12.732;2024-03-08T04:33:50;11.30;;;4.37;;
36241;SDS011;22283;42.748;12.732;2024-03-08T04:38:51;6.00;;;3.77;;
36241;SDS011;22283;42.748;12.732;2024-03-08T04:43:51;5.83;;;3.37;;
36241;SDS011;22283;42.748;12.732;2024-03-08T04:48:52;7.00;;;3.57;;
36241;SDS011;22283;42.748;12.732;2024-03-08T04:53:52;8.43;;;4.20;;
36241;SDS011;22283;42.748;12.732;2024-03-08T04:58:53;9.33;;;4.37;;
36241;SDS011;22283;42.748;12.732;2024-03-08T05:03:53;7.20;;;4.00;;
36241;SDS011;22283;42.748;12.732;2024-03-08T05:08:55;6.68;;;3.65;;
36241;SDS011;22283;42.748;12.732;2024-03-08T05:13:56;7.47;;;3.67;;
36241;SDS011;22283;42.748;12.732;2024-03-08T05:18:59;9.85;;;4.07;;
36241;SDS011;22283;42.748;12.732;2024-03-08T05:23:59;9.20;;;4.20;;
36241;SDS011;22283;42.748;12.732;2024-03-08T05:29:00;10.47;;;4.00;;
36241;SDS011;22283;42.748;12.732;2024-03-08T05:34:00;18.60;;;5.30;;
36241;SDS011;22283;42.748;12.732;2024-03-08T05:39:01;13.77;;;4.33;;
36241;SDS011;22283;42.748;12.732;2024-03-08T05:44:01;7.67;;;4.40;;
36241;SDS011;22283;42.748;12.732;2024-03-08T05:49:06;10.85;;;3.72;;
36241;SDS011;22283;42.748;12.732;2024-03-08T05:54:08;11.85;;;4.75;;
36241;SDS011;22283;42.748;12.732;2024-03-08T05:59:12;19.17;;;5.13;;
36241;SDS011;22283;42.748;12.732;2024-03-08T06:04:13;16.17;;;6.00;;
36241;SDS011;22283;42.748;12.732;2024-03-08T06:09:14;17.98;;;5.70;;
36241;SDS011;22283;42.748;12.732;2024-03-08T06:14:22;27.52;;;6.75;;
36241;SDS011;22283;42.748;12.732;2024-03-08T06:19:23;12.17;;;5.77;;
36241;SDS011;22283;42.748;12.732;2024-03-08T06:24:23;17.53;;;6.80;;
36241;SDS011;22283;42.748;12.732;2024-03-08T06:29:24;14.93;;;4.63;;
36241;SDS011;22283;42.748;12.732;2024-03-08T06:34:24;6.60;;;4.20;;
36241;SDS011;22283;42.748;12.732;2024-03-08T06:39:25;18.03;;;5.00;;
36241;SDS011;22283;42.748;12.732;2024-03-08T06:44:25;11.20;;;7.30;;
36241;SDS011;22283;42.748;12.732;2024-03-08T06:49:26;6.63;;;4.80;;
36241;SDS011;22283;42.748;12.732;2024-03-08T06:54:27;18.03;;;5.53;;
36241;SDS011;22283;42.748;12.732;2024-03-08T06:59:27;12.13;;;7.00;;
36241;SDS011;22283;42.748;12.732;2024-03-08T07:04:28;12.70;;;6.60;;
36241;SDS011;22283;42.748;12.732;2024-03-08T07:09:34;13.00;;;6.55;;
36241;SDS011;22283;42.748;12.732;2024-03-08T07:14:34;20.80;;;7.40;;
36241;SDS011;22283;42.748;12.732;2024-03-08T07:19:40;12.93;;;6.55;;
36241;SDS011;22283;42.748;12.732;2024-03-08T07:24:41;13.60;;;5.93;;
36241;SDS011;22283;42.748;12.732;2024-03-08T07:30:02;16.30;;;6.32;;
36241;SDS011;22283;42.748;12.732;2024-03-08T07:35:03;14.50;;;6.63;;
36241;SDS011;22283;42.748;12.732;2024-03-08T07:40:05;15.50;;;7.03;;
36241;SDS011;22283;42.748;12.732;2024-03-08T07:45:06;16.92;;;7.18;;
36241;SDS011;22283;42.748;12.732;2024-03-08T07:50:11;12.45;;;6.50;;
36241;SDS011;22283;42.748;12.732;2024-03-08T07:55:11;13.45;;;8.13;;
36241;SDS011;22283;42.748;12.732;2024-03-08T08:00:12;16.50;;;6.83;;
36241;SDS011;22283;42.748;12.732;2024-03-08T08:05:17;18.00;;;8.00;;
36241;SDS011;22283;42.748;12.732;2024-03-08T08:10:18;11.27;;;7.93;;
36241;SDS011;22283;42.748;12.732;2024-03-08T08:15:21;16.15;;;8.70;;
36241;SDS011;22283;42.748;12.732;2024-03-08T08:20:23;18.77;;;10.40;;
36241;SDS011;22283;42.748;12.732;2024-03-08T08:25:23;19.40;;;10.50;;
36241;SDS011;22283;42.748;12.732;2024-03-08T08:30:24;14.02;;;9.82;;
36241;SDS011;22283;42.748;12.732;2024-03-08T08:35:25;16.70;;;10.07;;
36241;SDS011;22283;42.748;12.732;2024-03-08T08:40:25;25.53;;;9.70;;
36241;SDS011;22283;42.748;12.732;2024-03-08T08:45:26;13.93;;;10.23;;
36241;SDS011;22283;42.748;12.732;2024-03-08T08:50:27;14.23;;;9.93;;
36241;SDS011;22283;42.748;12.732;2024-03-08T08:55:28;15.07;;;9.68;;
36241;SDS011;22283;42.748;12.732;2024-03-08T09:00:29;20.33;;;10.80;;
36241;SDS011;22283;42.748;12.732;2024-03-08T09:05:31;20.23;;;11.18;;
36241;SDS011;22283;42.748;12.732;2024-03-08T09:10:31;15.53;;;9.57;;
36241;SDS011;22283;42.748;12.732;2024-03-08T09:15:34;13.60;;;8.95;;
36241;SDS011;22283;42.748;12.732;2024-03-08T09:20:34;10.10;;;7.93;;
36241;SDS011;22283;42.748;12.732;2024-03-08T09:25:35;12.40;;;7.77;;
36241;SDS011;22283;42.748;12.732;2024-03-08T09:30:35;13.87;;;8.30;;
36241;SDS011;22283;42.748;12.732;2024-03-08T09:35:37;10.82;;;8.70;;
36241;SDS011;22283;42.748;12.732;2024-03-08T09:40:37;12.37;;;9.00;;
36241;SDS011;22283;42.748;12.732;2024-03-08T09:45:38;12.97;;;7.83;;
36241;SDS011;22283;42.748;12.732;2024-03-08T09:50:41;18.95;;;8.63;;
36241;SDS011;22283;42.748;12.732;2024-03-08T09:55:43;16.25;;;8.38;;
36241;SDS011;22283;42.748;12.732;2024-03-08T10:00:45;14.25;;;9.38;;
36241;SDS011;22283;42.748;12.732;2024-03-08T10:05:45;18.03;;;11.53;;
36241;SDS011;22283;42.748;12.732;2024-03-08T10:10:47;13.50;;;9.32;;
36241;SDS011;22283;42.748;12.732;2024-03-08T10:15:47;12.73;;;7.57;;
36241;SDS011;22283;42.748;12.732;2024-03-08T10:21:04;15.30;;;10.63;;
36241;SDS011;22283;42.748;12.732;2024-03-08T10:26:13;14.73;;;9.18;;
36241;SDS011;22283;42.748;12.732;2024-03-08T10:31:16;13.68;;;8.88;;
36241;SDS011;22283;42.748;12.732;2024-03-08T10:36:17;13.43;;;8.85;;
36241;SDS011;22283;42.748;12.732;2024-03-08T10:41:19;17.65;;;10.18;;
36241;SDS011;22283;42.748;12.732;2024-03-08T10:51:25;14.13;;;7.60;;
36241;SDS011;22283;42.748;12.732;2024-03-08T10:56:27;13.07;;;7.15;;
36241;SDS011;22283;42.748;12.732;2024-03-08T11:01:27;11.43;;;8.30;;
36241;SDS011;22283;42.748;12.732;2024-03-08T11:06:31;13.02;;;7.20;;
36241;SDS011;22283;42.748;12.732;2024-03-08T11:11:43;13.40;;;8.07;;
36241;SDS011;22283;42.748;12.732;2024-03-08T11:16:44;15.80;;;6.80;;
36241;SDS011;22283;42.748;12.732;2024-03-08T11:21:45;13.80;;;6.25;;
36241;SDS011;22283;42.748;12.732;2024-03-08T11:26:46;14.88;;;6.18;;
36241;SDS011;22283;42.748;12.732;2024-03-08T11:31:47;11.13;;;5.80;;
36241;SDS011;22283;42.748;12.732;2024-03-08T11:36:48;7.47;;;4.40;;
36241;SDS011;22283;42.748;12.732;2024-03-08T11:41:48;13.33;;;6.83;;
36241;SDS011;22283;42.748;12.732;2024-03-08T11:46:49;8.97;;;3.63;;
36241;SDS011;22283;42.748;12.732;2024-03-08T11:51:52;8.00;;;3.47;;
36241;SDS011;22283;42.748;12.732;2024-03-08T11:56:53;5.40;;;2.50;;
36241;SDS011;22283;42.748;12.732;2024-03-08T12:02:01;5.63;;;2.40;;
36241;SDS011;22283;42.748;12.732;2024-03-08T12:07:06;6.90;;;2.23;;
36241;SDS011;22283;42.748;12.732;2024-03-08T12:12:10;5.57;;;2.38;;
36241;SDS011;22283;42.748;12.732;2024-03-08T12:17:12;4.70;;;2.20;;
36241;SDS011;22283;42.748;12.732;2024-03-08T12:22:14;12.00;;;2.47;;
36241;SDS011;22283;42.748;12.732;2024-03-08T12:27:19;11.23;;;3.05;;
36241;SDS011;22283;42.748;12.732;2024-03-08T12:32:20;9.93;;;4.53;;
36241;SDS011;22283;42.748;12.732;2024-03-08T12:37:23;9.43;;;3.80;;
36241;SDS011;22283;42.748;12.732;2024-03-08T12:42:24;14.33;;;5.40;;
36241;SDS011;22283;42.748;12.732;2024-03-08T12:47:25;9.70;;;4.40;;
36241;SDS011;22283;42.748;12.732;2024-03-08T12:52:28;52.38;;;7.60;;
36241;SDS011;22283;42.748;12.732;2024-03-08T12:57:30;11.85;;;4.10;;
36241;SDS011;22283;42.748;12.732;2024-03-08T13:02:30;8.77;;;4.07;;
36241;SDS011;22283;42.748;12.732;2024-03-08T13:07:32;7.07;;;3.50;;
36241;SDS011;22283;42.748;12.732;2024-03-08T13:17:38;8.27;;;3.72;;
36241;SDS011;22283;42.748;12.732;2024-03-08T13:22:40;9.32;;;3.75;;
36241;SDS011;22283;42.748;12.732;2024-03-08T13:27:41;5.63;;;3.27;;
36241;SDS011;22283;42.748;12.732;2024-03-08T13:32:45;6.07;;;3.45;;
36241;SDS011;22283;42.748;12.732;2024-03-08T13:37:46;12.23;;;3.53;;
36241;SDS011;22283;42.748;12.732;2024-03-08T13:42:47;7.23;;;2.97;;
36241;SDS011;22283;42.748;12.732;2024-03-08T13:47:52;11.23;;;3.67;;
36241;SDS011;22283;42.748;12.732;2024-03-08T13:52:54;6.88;;;3.08;;
36241;SDS011;22283;42.748;12.732;2024-03-08T13:57:54;4.60;;;3.17;;
36241;SDS011;22283;42.748;12.732;2024-03-08T14:02:57;9.00;;;3.85;;
36241;SDS011;22283;42.748;12.732;2024-03-08T14:07:57;19.43;;;5.63;;
36241;SDS011;22283;42.748;12.732;2024-03-08T14:13:01;8.77;;;3.20;;
36241;SDS011;22283;42.748;12.732;2024-03-08T14:18:04;11.98;;;3.83;;
36241;SDS011;22283;42.748;12.732;2024-03-08T14:23:06;12.35;;;3.58;;
36241;SDS011;22283;42.748;12.732;2024-03-08T14:33:10;9.93;;;4.20;;
36241;SDS011;22283;42.748;12.732;2024-03-08T14:38:11;10.53;;;5.03;;
36241;SDS011;22283;42.748;12.732;2024-03-08T14:43:13;8.88;;;4.05;;
36241;SDS011;22283;42.748;12.732;2024-03-08T14:48:16;7.78;;;3.58;;
36241;SDS011;22283;42.748;12.732;2024-03-08T14:53:17;8.97;;;6.33;;
36241;SDS011;22283;42.748;12.732;2024-03-08T15:03:21;8.65;;;4.20;;
36241;SDS011;22283;42.748;12.732;2024-03-08T15:08:25;7.15;;;3.70;;
36241;SDS011;22283;42.748;12.732;2024-03-08T15:13:27;7.40;;;4.20;;
36241;SDS011;22283;42.748;12.732;2024-03-08T15:18:34;10.20;;;5.25;;
36241;SDS011;22283;42.748;12.732;2024-03-08T15:23:36;12.10;;;7.40;;
36241;SDS011;22283;42.748;12.732;2024-03-08T15:28:36;7.73;;;4.47;;
36241;SDS011;22283;42.748;12.732;2024-03-08T15:33:38;11.33;;;5.97;;
36241;SDS011;22283;42.748;12.732;2024-03-08T15:38:51;8.80;;;4.13;;
36241;SDS011;22283;42.748;12.732;2024-03-08T15:43:52;9.10;;;5.57;;
36241;SDS011;22283;42.748;12.732;2024-03-08T15:48:52;9.23;;;5.00;;
36241;SDS011;22283;42.748;12.732;2024-03-08T15:53:53;10.37;;;5.70;;
36241;SDS011;22283;42.748;12.732;2024-03-08T15:58:55;16.05;;;6.22;;
36241;SDS011;22283;42.748;12.732;2024-03-08T16:03:56;16.20;;;5.50;;
36241;SDS011;22283;42.748;12.732;2024-03-08T16:08:58;16.50;;;6.45;;
36241;SDS011;22283;42.748;12.732;2024-03-08T16:13:59;14.00;;;6.90;;
36241;SDS011;22283;42.748;12.732;2024-03-08T16:19:01;20.70;;;5.53;;
36241;SDS011;22283;42.748;12.732;2024-03-08T16:24:05;11.50;;;5.55;;
36241;SDS011;22283;42.748;12.732;2024-03-08T16:29:06;26.40;;;10.00;;
36241;SDS011;22283;42.748;12.732;2024-03-08T16:34:06;20.17;;;6.40;;
36241;SDS011;22283;42.748;12.732;2024-03-08T16:39:08;13.15;;;4.40;;
36241;SDS011;22283;42.748;12.732;2024-03-08T16:44:09;7.20;;;3.58;;
36241;SDS011;22283;42.748;12.732;2024-03-08T16:49:10;8.97;;;4.33;;
36241;SDS011;22283;42.748;12.732;2024-03-08T16:54:10;17.90;;;4.10;;
36241;SDS011;22283;42.748;12.732;2024-03-08T16:59:12;8.35;;;3.80;;
36241;SDS011;22283;42.748;12.732;2024-03-08T17:04:12;17.27;;;4.77;;
36241;SDS011;22283;42.748;12.732;2024-03-08T17:09:13;14.97;;;5.33;;
36241;SDS011;22283;42.748;12.732;2024-03-08T17:14:14;11.07;;;4.37;;
36241;SDS011;22283;42.748;12.732;2024-03-08T17:19:14;14.27;;;6.10;;
36241;SDS011;22283;42.748;12.732;2024-03-08T17:24:15;10.50;;;4.20;;
36241;SDS011;22283;42.748;12.732;2024-03-08T17:29:17;10.20;;;3.78;;
36241;SDS011;22283;42.748;12.732;2024-03-08T17:39:19;13.93;;;5.05;;
36241;SDS011;22283;42.748;12.732;2024-03-08T17:44:20;16.03;;;3.80;;
36241;SDS011;22283;42.748;12.732;2024-03-08T17:49:22;11.18;;;4.75;;
36241;SDS011;22283;42.748;12.732;2024-03-08T17:54:28;17.13;;;5.50;;
36241;SDS011;22283;42.748;12.732;2024-03-08T17:59:29;13.30;;;6.00;;
36241;SDS011;22283;42.748;12.732;2024-03-08T18:04:32;13.25;;;3.58;;
36241;SDS011;22283;42.748;12.732;2024-03-08T18:09:34;9.40;;;3.50;;
36241;SDS011;22283;42.748;12.732;2024-03-08T18:14:34;10.02;;;4.20;;
36241;SDS011;22283;42.748;12.732;2024-03-08T18:19:37;11.13;;;5.32;;
36241;SDS011;22283;42.748;12.732;2024-03-08T18:24:38;11.33;;;3.77;;
36241;SDS011;22283;42.748;12.732;2024-03-08T18:29:41;15.80;;;9.65;;
36241;SDS011;22283;42.748;12.732;2024-03-08T18:34:42;13.40;;;5.70;;
36241;SDS011;22283;42.748;12.732;2024-03-08T18:39:44;15.45;;;5.85;;
36241;SDS011;22283;42.748;12.732;2024-03-08T18:44:45;23.70;;;7.43;;
36241;SDS011;22283;42.748;12.732;2024-03-08T18:49:46;15.57;;;6.30;;
36241;SDS011;22283;42.748;12.732;2024-03-08T18:54:47;17.80;;;7.57;;
36241;SDS011;22283;42.748;12.732;2024-03-08T18:59:48;13.43;;;6.17;;
36241;SDS011;22283;42.748;12.732;2024-03-08T19:04:50;14.15;;;5.72;;
36241;SDS011;22283;42.748;12.732;2024-03-08T19:09:55;7.95;;;4.63;;
36241;SDS011;22283;42.748;12.732;2024-03-08T19:14:57;28.95;;;6.47;;
36241;SDS011;22283;42.748;12.732;2024-03-08T19:19:58;20.77;;;6.25;;
36241;SDS011;22283;42.748;12.732;2024-03-08T19:25:00;21.77;;;8.18;;
36241;SDS011;22283;42.748;12.732;2024-03-08T19:30:03;18.77;;;6.82;;
36241;SDS011;22283;42.748;12.732;2024-03-08T19:35:05;15.43;;;7.43;;
36241;SDS011;22283;42.748;12.732;2024-03-08T19:40:13;14.57;;;7.00;;
36241;SDS011;22283;42.748;12.732;2024-03-08T19:45:19;23.73;;;10.70;;
36241;SDS011;22283;42.748;12.732;2024-03-08T19:50:20;20.30;;;7.93;;
36241;SDS011;22283;42.748;12.732;2024-03-08T19:55:21;28.13;;;5.63;;
36241;SDS011;22283;42.748;12.732;2024-03-08T20:00:22;10.15;;;4.47;;
36241;SDS011;22283;42.748;12.732;2024-03-08T20:05:26;16.98;;;6.95;;
36241;SDS011;22283;42.748;12.732;2024-03-08T20:10:31;10.90;;;3.83;;
36241;SDS011;22283;42.748;12.732;2024-03-08T20:15:32;9.32;;;4.28;;
36241;SDS011;22283;42.748;12.732;2024-03-08T20:20:33;12.07;;;4.20;;
36241;SDS011;22283;42.748;12.732;2024-03-08T20:30:37;9.25;;;5.22;;
36241;SDS011;22283;42.748;12.732;2024-03-08T20:35:38;14.00;;;6.20;;
36241;SDS011;22283;42.748;12.732;2024-03-08T20:40:41;15.95;;;8.35;;
36241;SDS011;22283;42.748;12.732;2024-03-08T20:45:44;21.10;;;11.73;;
36241;SDS011;22283;42.748;12.732;2024-03-08T20:50:45;36.37;;;22.37;;
36241;SDS011;22283;42.748;12.732;2024-03-08T20:55:45;19.27;;;11.63;;
36241;SDS011;22283;42.748;12.732;2024-03-08T21:00:47;20.75;;;10.85;;
36241;SDS011;22283;42.748;12.732;2024-03-08T21:05:53;18.40;;;12.25;;
36241;SDS011;22283;42.748;12.732;2024-03-08T21:10:54;21.87;;;13.60;;
36241;SDS011;22283;42.748;12.732;2024-03-08T21:15:56;18.27;;;11.18;;
36241;SDS011;22283;42.748;12.732;2024-03-08T21:20:58;23.77;;;9.70;;
36241;SDS011;22283;42.748;12.732;2024-03-08T21:25:58;17.47;;;9.73;;
36241;SDS011;22283;42.748;12.732;2024-03-08T21:31:01;26.75;;;16.13;;
36241;SDS011;22283;42.748;12.732;2024-03-08T21:36:02;34.17;;;18.60;;
36241;SDS011;22283;42.748;12.732;2024-03-08T21:41:03;23.02;;;12.70;;
36241;SDS011;22283;42.748;12.732;2024-03-08T21:46:08;23.58;;;12.57;;
36241;SDS011;22283;42.748;12.732;2024-03-08T21:51:09;28.87;;;14.07;;
36241;SDS011;22283;42.748;12.732;2024-03-08T21:56:10;21.08;;;11.73;;
36241;SDS011;22283;42.748;12.732;2024-03-08T22:01:11;17.37;;;10.47;;
36241;SDS011;22283;42.748;12.732;2024-03-08T22:06:11;16.37;;;10.47;;
36241;SDS011;22283;42.748;12.732;2024-03-08T22:11:12;18.53;;;11.07;;
36241;SDS011;22283;42.748;12.732;2024-03-08T22:16:13;22.30;;;11.73;;
36241;SDS011;22283;42.748;12.732;2024-03-08T22:21:13;18.40;;;11.73;;
36241;SDS011;22283;42.748;12.732;2024-03-08T22:26:14;22.83;;;11.43;;
36241;SDS011;22283;42.748;12.732;2024-03-08T22:31:18;21.23;;;13.48;;
36241;SDS011;22283;42.748;12.732;2024-03-08T22:36:19;19.63;;;11.80;;
36241;SDS011;22283;42.748;12.732;2024-03-08T22:41:21;24.92;;;11.25;;
36241;SDS011;22283;42.748;12.732;2024-03-08T22:46:25;15.57;;;11.02;;
36241;SDS011;22283;42.748;12.732;2024-03-08T22:51:28;26.15;;;11.00;;
36241;SDS011;22283;42.748;12.732;2024-03-08T22:56:29;21.33;;;10.90;;
36241;SDS011;22283;42.748;12.732;2024-03-08T23:01:33;16.70;;;11.18;;
36241;SDS011;22283;42.748;12.732;2024-03-08T23:06:34;22.17;;;9.43;;
36241;SDS011;22283;42.748;12.732;2024-03-08T23:11:37;14.98;;;8.88;;
36241;SDS011;22283;42.748;12.732;2024-03-08T23:16:38;17.40;;;9.97;;
36241;SDS011;22283;42.748;12.732;2024-03-08T23:26:39;16.63;;;10.93;;
36241;SDS011;22283;42.748;12.732;2024-03-08T23:31:45;16.60;;;12.15;;
36241;SDS011;22283;42.748;12.732;2024-03-08T23:36:45;15.90;;;11.05;;
36241;SDS011;22283;42.748;12.732;2024-03-08T23:41:48;16.30;;;9.63;;
36241;SDS011;22283;42.748;12.732;2024-03-08T23:46:49;15.57;;;9.93;;
36241;SDS011;22283;42.748;12.732;2024-03-08T23:51:51;20.38;;;10.00;;
36241;SDS011;22283;42.748;12.732;2024-03-08T23:56:54;17.33;;;6.65;;
